sensor_id;sensor_type;location;lat;lon;timestamp;P1;durP1;ratioP1;P2;durP2;ratioP2
65162;SDS011;51751;55.714;37.436;2023-07-02T00:00:02;9.10;;;5.72;;
65162;SDS011;51751;55.714;37.436;2023-07-02T00:02:36;7.72;;;5.60;;
65162;SDS011;51751;55.714;37.436;2023-07-02T00:05:03;7.90;;;5.65;;
65162;SDS011;51751;55.714;37.436;2023-07-02T00:07:30;8.82;;;5.68;;
65162;SDS011;51751;55.714;37.436;2023-07-02T00:10:00;7.40;;;5.18;;
65162;SDS011;51751;55.714;37.436;2023-07-02T00:12:25;13.90;;;5.22;;
65162;SDS011;51751;55.714;37.436;2023-07-02T00:14:51;8.05;;;5.03;;
65162;SDS011;51751;55.714;37.436;2023-07-02T00:17:19;7.97;;;5.45;;
65162;SDS011;51751;55.714;37.436;2023-07-02T00:19:45;8.90;;;5.28;;
65162;SDS011;51751;55.714;37.436;2023-07-02T00:22:12;11.32;;;5.80;;
65162;SDS011;51751;55.714;37.436;2023-07-02T00:24:38;9.32;;;6.10;;
65162;SDS011;51751;55.714;37.436;2023-07-02T00:27:04;8.07;;;5.60;;
65162;SDS011;51751;55.714;37.436;2023-07-02T00:29:33;8.25;;;5.32;;
65162;SDS011;51751;55.714;37.436;2023-07-02T00:31:59;7.65;;;5.43;;
65162;SDS011;51751;55.714;37.436;2023-07-02T00:34:26;8.38;;;5.43;;
65162;SDS011;51751;55.714;37.436;2023-07-02T00:36:55;6.90;;;5.45;;
65162;SDS011;51751;55.714;37.436;2023-07-02T00:39:21;12.35;;;5.90;;
65162;SDS011;51751;55.714;37.436;2023-07-02T00:41:47;8.07;;;5.53;;
65162;SDS011;51751;55.714;37.436;2023-07-02T00:44:13;7.65;;;5.18;;
65162;SDS011;51751;55.714;37.436;2023-07-02T00:46:39;11.13;;;5.72;;
65162;SDS011;51751;55.714;37.436;2023-07-02T00:49:05;6.88;;;5.15;;
65162;SDS011;51751;55.714;37.436;2023-07-02T00:51:31;7.80;;;5.32;;
65162;SDS011;51751;55.714;37.436;2023-07-02T00:53:57;9.32;;;5.20;;
65162;SDS011;51751;55.714;37.436;2023-07-02T00:56:25;10.88;;;5.43;;
65162;SDS011;51751;55.714;37.436;2023-07-02T00:58:55;10.98;;;5.68;;
65162;SDS011;51751;55.714;37.436;2023-07-02T01:01:24;9.20;;;5.05;;
65162;SDS011;51751;55.714;37.436;2023-07-02T01:04:00;8.18;;;5.50;;
65162;SDS011;51751;55.714;37.436;2023-07-02T01:06:31;9.70;;;5.23;;
65162;SDS011;51751;55.714;37.436;2023-07-02T01:08:58;6.07;;;4.85;;
65162;SDS011;51751;55.714;37.436;2023-07-02T01:11:28;14.07;;;5.47;;
65162;SDS011;51751;55.714;37.436;2023-07-02T01:14:09;11.10;;;5.00;;
65162;SDS011;51751;55.714;37.436;2023-07-02T01:16:38;8.82;;;5.10;;
65162;SDS011;51751;55.714;37.436;2023-07-02T01:19:13;8.45;;;5.07;;
65162;SDS011;51751;55.714;37.436;2023-07-02T01:21:47;10.90;;;5.05;;
65162;SDS011;51751;55.714;37.436;2023-07-02T01:24:13;7.72;;;5.22;;
65162;SDS011;51751;55.714;37.436;2023-07-02T01:26:43;6.38;;;5.10;;
65162;SDS011;51751;55.714;37.436;2023-07-02T01:29:15;7.50;;;5.10;;
65162;SDS011;51751;55.714;37.436;2023-07-02T01:31:42;8.32;;;5.30;;
65162;SDS011;51751;55.714;37.436;2023-07-02T01:34:09;6.35;;;4.60;;
65162;SDS011;51751;55.714;37.436;2023-07-02T01:36:36;6.63;;;5.00;;
65162;SDS011;51751;55.714;37.436;2023-07-02T01:39:02;8.40;;;5.13;;
65162;SDS011;51751;55.714;37.436;2023-07-02T01:41:29;10.80;;;4.90;;
65162;SDS011;51751;55.714;37.436;2023-07-02T01:43:55;10.68;;;5.32;;
65162;SDS011;51751;55.714;37.436;2023-07-02T01:46:24;8.77;;;4.82;;
65162;SDS011;51751;55.714;37.436;2023-07-02T01:48:53;8.95;;;4.82;;
65162;SDS011;51751;55.714;37.436;2023-07-02T01:51:19;6.15;;;4.47;;
65162;SDS011;51751;55.714;37.436;2023-07-02T01:53:45;7.20;;;4.70;;
65162;SDS011;51751;55.714;37.436;2023-07-02T01:56:17;8.48;;;4.78;;
65162;SDS011;51751;55.714;37.436;2023-07-02T01:58:43;10.43;;;5.03;;
65162;SDS011;51751;55.714;37.436;2023-07-02T02:01:10;5.72;;;4.80;;
65162;SDS011;51751;55.714;37.436;2023-07-02T02:03:36;7.10;;;4.60;;
65162;SDS011;51751;55.714;37.436;2023-07-02T02:06:02;6.93;;;4.82;;
65162;SDS011;51751;55.714;37.436;2023-07-02T02:08:28;8.48;;;4.45;;
65162;SDS011;51751;55.714;37.436;2023-07-02T02:10:54;9.15;;;5.68;;
65162;SDS011;51751;55.714;37.436;2023-07-02T02:13:22;6.13;;;4.50;;
65162;SDS011;51751;55.714;37.436;2023-07-02T02:15:51;6.47;;;4.65;;
65162;SDS011;51751;55.714;37.436;2023-07-02T02:18:17;12.23;;;4.93;;
65162;SDS011;51751;55.714;37.436;2023-07-02T02:21:03;6.00;;;4.22;;
65162;SDS011;51751;55.714;37.436;2023-07-02T02:23:29;7.57;;;5.10;;
65162;SDS011;51751;55.714;37.436;2023-07-02T02:25:58;6.90;;;4.93;;
65162;SDS011;51751;55.714;37.436;2023-07-02T02:28:50;6.10;;;4.20;;
65162;SDS011;51751;55.714;37.436;2023-07-02T02:31:16;11.80;;;4.68;;
65162;SDS011;51751;55.714;37.436;2023-07-02T02:33:43;6.70;;;4.50;;
65162;SDS011;51751;55.714;37.436;2023-07-02T02:36:09;7.53;;;4.60;;
65162;SDS011;51751;55.714;37.436;2023-07-02T02:38:38;5.90;;;4.32;;
65162;SDS011;51751;55.714;37.436;2023-07-02T02:41:04;8.90;;;4.53;;
65162;SDS011;51751;55.714;37.436;2023-07-02T02:43:36;5.95;;;4.28;;
65162;SDS011;51751;55.714;37.436;2023-07-02T02:46:03;6.68;;;4.20;;
65162;SDS011;51751;55.714;37.436;2023-07-02T02:48:34;10.63;;;4.35;;
65162;SDS011;51751;55.714;37.436;2023-07-02T02:51:00;6.15;;;4.70;;
65162;SDS011;51751;55.714;37.436;2023-07-02T02:53:26;7.50;;;4.75;;
65162;SDS011;51751;55.714;37.436;2023-07-02T02:55:52;5.90;;;4.55;;
65162;SDS011;51751;55.714;37.436;2023-07-02T02:58:19;6.50;;;4.40;;
65162;SDS011;51751;55.714;37.436;2023-07-02T03:00:45;6.00;;;4.60;;
65162;SDS011;51751;55.714;37.436;2023-07-02T03:03:14;6.63;;;4.63;;
65162;SDS011;51751;55.714;37.436;2023-07-02T03:05:40;6.80;;;4.60;;
65162;SDS011;51751;55.714;37.436;2023-07-02T03:08:24;8.88;;;4.50;;
65162;SDS011;51751;55.714;37.436;2023-07-02T03:10:55;7.13;;;4.22;;
65162;SDS011;51751;55.714;37.436;2023-07-02T03:13:27;6.88;;;4.47;;
65162;SDS011;51751;55.714;37.436;2023-07-02T03:15:53;5.97;;;4.40;;
65162;SDS011;51751;55.714;37.436;2023-07-02T03:18:19;7.63;;;4.75;;
65162;SDS011;51751;55.714;37.436;2023-07-02T03:20:50;5.50;;;4.40;;
65162;SDS011;51751;55.714;37.436;2023-07-02T03:23:16;6.88;;;4.60;;
65162;SDS011;51751;55.714;37.436;2023-07-02T03:25:42;9.23;;;4.78;;
65162;SDS011;51751;55.714;37.436;2023-07-02T03:28:11;7.30;;;4.63;;
65162;SDS011;51751;55.714;37.436;2023-07-02T03:30:37;7.75;;;4.50;;
65162;SDS011;51751;55.714;37.436;2023-07-02T03:33:06;12.65;;;4.60;;
65162;SDS011;51751;55.714;37.436;2023-07-02T03:35:33;6.90;;;4.40;;
65162;SDS011;51751;55.714;37.436;2023-07-02T03:38:03;6.93;;;4.05;;
65162;SDS011;51751;55.714;37.436;2023-07-02T03:40:32;13.38;;;4.43;;
65162;SDS011;51751;55.714;37.436;2023-07-02T03:43:01;7.25;;;4.25;;
65162;SDS011;51751;55.714;37.436;2023-07-02T03:45:27;6.75;;;4.53;;
65162;SDS011;51751;55.714;37.436;2023-07-02T03:47:53;5.97;;;4.13;;
65162;SDS011;51751;55.714;37.436;2023-07-02T03:50:18;9.00;;;4.28;;
65162;SDS011;51751;55.714;37.436;2023-07-02T03:52:44;6.57;;;4.40;;
65162;SDS011;51751;55.714;37.436;2023-07-02T03:55:10;5.90;;;4.53;;
65162;SDS011;51751;55.714;37.436;2023-07-02T03:57:37;6.50;;;4.28;;
65162;SDS011;51751;55.714;37.436;2023-07-02T04:00:04;7.38;;;4.78;;
65162;SDS011;51751;55.714;37.436;2023-07-02T04:02:40;5.38;;;4.20;;
65162;SDS011;51751;55.714;37.436;2023-07-02T04:05:07;10.23;;;4.22;;
65162;SDS011;51751;55.714;37.436;2023-07-02T04:07:33;9.25;;;4.72;;
65162;SDS011;51751;55.714;37.436;2023-07-02T04:09:59;5.43;;;4.60;;
65162;SDS011;51751;55.714;37.436;2023-07-02T04:12:26;7.22;;;4.43;;
65162;SDS011;51751;55.714;37.436;2023-07-02T04:14:53;8.32;;;4.60;;
65162;SDS011;51751;55.714;37.436;2023-07-02T04:17:19;7.35;;;4.57;;
65162;SDS011;51751;55.714;37.436;2023-07-02T04:20:03;6.80;;;4.20;;
65162;SDS011;51751;55.714;37.436;2023-07-02T04:22:30;9.68;;;4.40;;
65162;SDS011;51751;55.714;37.436;2023-07-02T04:24:56;7.97;;;4.55;;
65162;SDS011;51751;55.714;37.436;2023-07-02T04:27:22;9.00;;;4.20;;
65162;SDS011;51751;55.714;37.436;2023-07-02T04:29:48;9.10;;;5.05;;
65162;SDS011;51751;55.714;37.436;2023-07-02T04:32:14;13.23;;;5.18;;
65162;SDS011;51751;55.714;37.436;2023-07-02T04:34:46;8.23;;;4.47;;
65162;SDS011;51751;55.714;37.436;2023-07-02T04:37:12;11.75;;;4.30;;
65162;SDS011;51751;55.714;37.436;2023-07-02T04:39:40;7.28;;;4.93;;
65162;SDS011;51751;55.714;37.436;2023-07-02T04:42:11;5.47;;;4.13;;
65162;SDS011;51751;55.714;37.436;2023-07-02T04:44:41;10.52;;;4.35;;
65162;SDS011;51751;55.714;37.436;2023-07-02T04:47:08;8.98;;;5.05;;
65162;SDS011;51751;55.714;37.436;2023-07-02T04:49:34;6.35;;;4.28;;
65162;SDS011;51751;55.714;37.436;2023-07-02T04:52:00;8.18;;;4.20;;
65162;SDS011;51751;55.714;37.436;2023-07-02T04:54:26;8.02;;;4.22;;
65162;SDS011;51751;55.714;37.436;2023-07-02T04:56:52;9.70;;;4.60;;
65162;SDS011;51751;55.714;37.436;2023-07-02T04:59:21;7.13;;;4.43;;
65162;SDS011;51751;55.714;37.436;2023-07-02T05:01:47;6.57;;;4.10;;
65162;SDS011;51751;55.714;37.436;2023-07-02T05:04:14;5.50;;;4.00;;
65162;SDS011;51751;55.714;37.436;2023-07-02T05:06:40;8.27;;;4.65;;
65162;SDS011;51751;55.714;37.436;2023-07-02T05:09:09;7.93;;;4.50;;
65162;SDS011;51751;55.714;37.436;2023-07-02T05:11:36;7.38;;;3.92;;
65162;SDS011;51751;55.714;37.436;2023-07-02T05:14:02;6.43;;;4.55;;
65162;SDS011;51751;55.714;37.436;2023-07-02T05:16:28;8.30;;;4.60;;
65162;SDS011;51751;55.714;37.436;2023-07-02T05:18:54;8.68;;;4.15;;
65162;SDS011;51751;55.714;37.436;2023-07-02T05:21:20;8.93;;;4.70;;
65162;SDS011;51751;55.714;37.436;2023-07-02T05:23:48;8.55;;;4.32;;
65162;SDS011;51751;55.714;37.436;2023-07-02T05:26:14;6.90;;;4.32;;
65162;SDS011;51751;55.714;37.436;2023-07-02T05:28:40;9.40;;;4.22;;
65162;SDS011;51751;55.714;37.436;2023-07-02T05:31:06;11.85;;;4.72;;
65162;SDS011;51751;55.714;37.436;2023-07-02T05:33:35;9.00;;;5.32;;
65162;SDS011;51751;55.714;37.436;2023-07-02T05:36:01;5.78;;;4.05;;
65162;SDS011;51751;55.714;37.436;2023-07-02T05:38:30;9.48;;;4.05;;
65162;SDS011;51751;55.714;37.436;2023-07-02T05:40:57;8.07;;;3.90;;
65162;SDS011;51751;55.714;37.436;2023-07-02T05:43:29;7.43;;;4.13;;
65162;SDS011;51751;55.714;37.436;2023-07-02T05:45:57;8.93;;;4.03;;
65162;SDS011;51751;55.714;37.436;2023-07-02T05:48:27;8.18;;;4.05;;
65162;SDS011;51751;55.714;37.436;2023-07-02T05:50:57;9.25;;;4.10;;
65162;SDS011;51751;55.714;37.436;2023-07-02T05:53:23;7.40;;;4.00;;
65162;SDS011;51751;55.714;37.436;2023-07-02T05:55:49;7.28;;;3.85;;
65162;SDS011;51751;55.714;37.436;2023-07-02T05:58:15;7.32;;;4.20;;
65162;SDS011;51751;55.714;37.436;2023-07-02T06:00:41;7.97;;;3.72;;
65162;SDS011;51751;55.714;37.436;2023-07-02T06:03:15;13.48;;;4.10;;
65162;SDS011;51751;55.714;37.436;2023-07-02T06:05:48;9.73;;;3.53;;
65162;SDS011;51751;55.714;37.436;2023-07-02T06:08:15;7.53;;;3.90;;
65162;SDS011;51751;55.714;37.436;2023-07-02T06:10:47;7.90;;;3.67;;
65162;SDS011;51751;55.714;37.436;2023-07-02T06:13:16;4.85;;;3.60;;
65162;SDS011;51751;55.714;37.436;2023-07-02T06:15:43;11.85;;;3.83;;
65162;SDS011;51751;55.714;37.436;2023-07-02T06:18:09;7.78;;;3.80;;
65162;SDS011;51751;55.714;37.436;2023-07-02T06:20:35;5.68;;;3.50;;
65162;SDS011;51751;55.714;37.436;2023-07-02T06:23:01;6.60;;;3.30;;
65162;SDS011;51751;55.714;37.436;2023-07-02T06:25:27;7.82;;;2.97;;
65162;SDS011;51751;55.714;37.436;2023-07-02T06:27:53;9.63;;;3.38;;
65162;SDS011;51751;55.714;37.436;2023-07-02T06:30:24;6.55;;;3.72;;
65162;SDS011;51751;55.714;37.436;2023-07-02T06:32:53;7.25;;;3.47;;
65162;SDS011;51751;55.714;37.436;2023-07-02T06:35:20;5.95;;;3.13;;
65162;SDS011;51751;55.714;37.436;2023-07-02T06:37:46;8.48;;;3.65;;
65162;SDS011;51751;55.714;37.436;2023-07-02T06:40:15;4.65;;;3.00;;
65162;SDS011;51751;55.714;37.436;2023-07-02T06:42:41;6.55;;;2.90;;
65162;SDS011;51751;55.714;37.436;2023-07-02T06:45:08;6.68;;;3.30;;
65162;SDS011;51751;55.714;37.436;2023-07-02T06:47:34;7.50;;;3.00;;
65162;SDS011;51751;55.714;37.436;2023-07-02T06:50:03;9.40;;;3.72;;
65162;SDS011;51751;55.714;37.436;2023-07-02T06:52:31;8.45;;;3.45;;
65162;SDS011;51751;55.714;37.436;2023-07-02T06:54:57;11.32;;;3.67;;
65162;SDS011;51751;55.714;37.436;2023-07-02T06:57:22;6.53;;;2.95;;
65162;SDS011;51751;55.714;37.436;2023-07-02T06:59:49;7.30;;;3.20;;
65162;SDS011;51751;55.714;37.436;2023-07-02T07:02:18;10.85;;;3.60;;
65162;SDS011;51751;55.714;37.436;2023-07-02T07:04:53;8.48;;;3.80;;
65162;SDS011;51751;55.714;37.436;2023-07-02T07:07:28;6.13;;;3.05;;
65162;SDS011;51751;55.714;37.436;2023-07-02T07:09:57;4.82;;;3.10;;
65162;SDS011;51751;55.714;37.436;2023-07-02T07:12:23;8.35;;;2.90;;
65162;SDS011;51751;55.714;37.436;2023-07-02T07:14:49;5.95;;;3.10;;
65162;SDS011;51751;55.714;37.436;2023-07-02T07:17:17;11.52;;;3.20;;
65162;SDS011;51751;55.714;37.436;2023-07-02T07:19:43;9.73;;;3.28;;
65162;SDS011;51751;55.714;37.436;2023-07-02T07:22:09;5.57;;;2.97;;
65162;SDS011;51751;55.714;37.436;2023-07-02T07:24:37;5.57;;;2.70;;
65162;SDS011;51751;55.714;37.436;2023-07-02T07:27:04;6.40;;;3.08;;
65162;SDS011;51751;55.714;37.436;2023-07-02T07:29:30;6.13;;;3.28;;
65162;SDS011;51751;55.714;37.436;2023-07-02T07:31:56;7.28;;;3.08;;
65162;SDS011;51751;55.714;37.436;2023-07-02T07:34:23;8.18;;;3.47;;
65162;SDS011;51751;55.714;37.436;2023-07-02T07:36:49;5.72;;;3.00;;
65162;SDS011;51751;55.714;37.436;2023-07-02T07:39:15;5.25;;;2.85;;
65162;SDS011;51751;55.714;37.436;2023-07-02T07:41:47;4.63;;;2.90;;
65162;SDS011;51751;55.714;37.436;2023-07-02T07:44:14;9.95;;;3.38;;
65162;SDS011;51751;55.714;37.436;2023-07-02T07:46:42;8.63;;;3.33;;
65162;SDS011;51751;55.714;37.436;2023-07-02T07:49:08;10.70;;;3.42;;
65162;SDS011;51751;55.714;37.436;2023-07-02T07:51:34;10.63;;;3.20;;
65162;SDS011;51751;55.714;37.436;2023-07-02T07:54:02;5.55;;;3.22;;
65162;SDS011;51751;55.714;37.436;2023-07-02T07:56:28;7.15;;;3.00;;
65162;SDS011;51751;55.714;37.436;2023-07-02T07:58:54;5.72;;;2.90;;
65162;SDS011;51751;55.714;37.436;2023-07-02T08:01:22;6.05;;;3.00;;
65162;SDS011;51751;55.714;37.436;2023-07-02T08:03:54;8.65;;;3.13;;
65162;SDS011;51751;55.714;37.436;2023-07-02T08:06:20;7.13;;;3.00;;
65162;SDS011;51751;55.714;37.436;2023-07-02T08:08:49;9.40;;;3.13;;
65162;SDS011;51751;55.714;37.436;2023-07-02T08:11:15;11.63;;;4.30;;
65162;SDS011;51751;55.714;37.436;2023-07-02T08:13:43;4.55;;;3.13;;
65162;SDS011;51751;55.714;37.436;2023-07-02T08:16:12;6.22;;;2.95;;
65162;SDS011;51751;55.714;37.436;2023-07-02T08:18:38;6.97;;;3.72;;
65162;SDS011;51751;55.714;37.436;2023-07-02T08:21:04;10.02;;;3.60;;
65162;SDS011;51751;55.714;37.436;2023-07-02T08:23:32;6.70;;;3.40;;
65162;SDS011;51751;55.714;37.436;2023-07-02T08:25:58;5.28;;;2.90;;
65162;SDS011;51751;55.714;37.436;2023-07-02T08:28:24;8.23;;;3.22;;
65162;SDS011;51751;55.714;37.436;2023-07-02T08:30:51;9.05;;;3.25;;
65162;SDS011;51751;55.714;37.436;2023-07-02T08:33:19;7.45;;;2.80;;
65162;SDS011;51751;55.714;37.436;2023-07-02T08:35:46;5.18;;;3.20;;
65162;SDS011;51751;55.714;37.436;2023-07-02T08:38:12;6.70;;;3.40;;
65162;SDS011;51751;55.714;37.436;2023-07-02T08:40:37;7.25;;;3.10;;
65162;SDS011;51751;55.714;37.436;2023-07-02T08:43:03;6.00;;;2.67;;
65162;SDS011;51751;55.714;37.436;2023-07-02T08:45:48;10.60;;;4.60;;
65162;SDS011;51751;55.714;37.436;2023-07-02T08:48:13;7.45;;;3.40;;
65162;SDS011;51751;55.714;37.436;2023-07-02T08:50:48;6.78;;;3.20;;
65162;SDS011;51751;55.714;37.436;2023-07-02T08:53:14;5.55;;;3.10;;
65162;SDS011;51751;55.714;37.436;2023-07-02T08:55:41;6.47;;;3.20;;
65162;SDS011;51751;55.714;37.436;2023-07-02T08:58:07;3.85;;;2.75;;
65162;SDS011;51751;55.714;37.436;2023-07-02T09:00:32;5.38;;;3.38;;
65162;SDS011;51751;55.714;37.436;2023-07-02T09:03:14;6.30;;;3.33;;
65162;SDS011;51751;55.714;37.436;2023-07-02T09:05:48;9.02;;;3.00;;
65162;SDS011;51751;55.714;37.436;2023-07-02T09:08:22;9.82;;;3.40;;
65162;SDS011;51751;55.714;37.436;2023-07-02T09:10:48;9.57;;;2.83;;
65162;SDS011;51751;55.714;37.436;2023-07-02T09:13:17;4.55;;;2.90;;
65162;SDS011;51751;55.714;37.436;2023-07-02T09:15:43;8.18;;;3.00;;
65162;SDS011;51751;55.714;37.436;2023-07-02T09:18:18;6.00;;;3.08;;
65162;SDS011;51751;55.714;37.436;2023-07-02T09:20:46;9.27;;;3.40;;
65162;SDS011;51751;55.714;37.436;2023-07-02T09:23:12;5.82;;;3.28;;
65162;SDS011;51751;55.714;37.436;2023-07-02T09:25:38;5.30;;;3.25;;
65162;SDS011;51751;55.714;37.436;2023-07-02T09:28:19;5.30;;;2.78;;
65162;SDS011;51751;55.714;37.436;2023-07-02T09:30:58;5.32;;;2.80;;
65162;SDS011;51751;55.714;37.436;2023-07-02T09:33:27;4.00;;;2.90;;
65162;SDS011;51751;55.714;37.436;2023-07-02T09:35:53;11.32;;;3.35;;
65162;SDS011;51751;55.714;37.436;2023-07-02T09:38:21;4.15;;;2.85;;
65162;SDS011;51751;55.714;37.436;2023-07-02T09:40:50;9.68;;;3.30;;
65162;SDS011;51751;55.714;37.436;2023-07-02T09:43:20;6.72;;;2.70;;
65162;SDS011;51751;55.714;37.436;2023-07-02T09:45:48;8.65;;;3.05;;
65162;SDS011;51751;55.714;37.436;2023-07-02T09:48:16;4.43;;;2.83;;
65162;SDS011;51751;55.714;37.436;2023-07-02T09:50:43;12.77;;;3.58;;
65162;SDS011;51751;55.714;37.436;2023-07-02T09:53:11;7.45;;;2.80;;
65162;SDS011;51751;55.714;37.436;2023-07-02T09:55:42;6.97;;;3.00;;
65162;SDS011;51751;55.714;37.436;2023-07-02T09:58:08;6.43;;;3.05;;
65162;SDS011;51751;55.714;37.436;2023-07-02T10:00:34;5.60;;;2.97;;
65162;SDS011;51751;55.714;37.436;2023-07-02T10:03:00;3.80;;;3.00;;
65162;SDS011;51751;55.714;37.436;2023-07-02T10:05:29;6.38;;;2.72;;
65162;SDS011;51751;55.714;37.436;2023-07-02T10:07:57;5.65;;;3.00;;
65162;SDS011;51751;55.714;37.436;2023-07-02T10:10:30;4.53;;;2.72;;
65162;SDS011;51751;55.714;37.436;2023-07-02T10:12:57;4.35;;;2.80;;
65162;SDS011;51751;55.714;37.436;2023-07-02T10:15:26;7.55;;;3.33;;
65162;SDS011;51751;55.714;37.436;2023-07-02T10:18:02;4.68;;;3.13;;
65162;SDS011;51751;55.714;37.436;2023-07-02T10:23:03;9.05;;;2.70;;
65162;SDS011;51751;55.714;37.436;2023-07-02T10:25:30;4.28;;;2.70;;
65162;SDS011;51751;55.714;37.436;2023-07-02T10:27:57;6.18;;;3.10;;
65162;SDS011;51751;55.714;37.436;2023-07-02T10:30:37;4.18;;;2.85;;
65162;SDS011;51751;55.714;37.436;2023-07-02T10:33:10;5.00;;;2.95;;
65162;SDS011;51751;55.714;37.436;2023-07-02T10:35:36;6.65;;;2.80;;
65162;SDS011;51751;55.714;37.436;2023-07-02T10:38:03;4.53;;;2.75;;
65162;SDS011;51751;55.714;37.436;2023-07-02T10:40:32;6.25;;;2.50;;
65162;SDS011;51751;55.714;37.436;2023-07-02T10:43:01;5.28;;;2.72;;
65162;SDS011;51751;55.714;37.436;2023-07-02T10:45:35;5.93;;;3.00;;
65162;SDS011;51751;55.714;37.436;2023-07-02T10:48:08;5.85;;;2.83;;
65162;SDS011;51751;55.714;37.436;2023-07-02T10:50:35;7.18;;;2.65;;
65162;SDS011;51751;55.714;37.436;2023-07-02T10:53:03;4.47;;;2.70;;
65162;SDS011;51751;55.714;37.436;2023-07-02T10:55:30;8.35;;;2.75;;
65162;SDS011;51751;55.714;37.436;2023-07-02T10:58:03;7.68;;;2.50;;
65162;SDS011;51751;55.714;37.436;2023-07-02T11:00:31;3.88;;;2.40;;
65162;SDS011;51751;55.714;37.436;2023-07-02T11:02:59;8.98;;;2.85;;
65162;SDS011;51751;55.714;37.436;2023-07-02T11:05:25;11.50;;;2.85;;
65162;SDS011;51751;55.714;37.436;2023-07-02T11:07:51;4.72;;;2.53;;
65162;SDS011;51751;55.714;37.436;2023-07-02T11:10:23;10.27;;;3.08;;
65162;SDS011;51751;55.714;37.436;2023-07-02T11:12:50;3.70;;;2.38;;
65162;SDS011;51751;55.714;37.436;2023-07-02T11:15:21;11.52;;;2.83;;
65162;SDS011;51751;55.714;37.436;2023-07-02T11:17:47;8.35;;;2.72;;
65162;SDS011;51751;55.714;37.436;2023-07-02T11:20:13;5.80;;;2.72;;
65162;SDS011;51751;55.714;37.436;2023-07-02T11:22:40;3.72;;;2.85;;
65162;SDS011;51751;55.714;37.436;2023-07-02T11:27:38;5.20;;;2.70;;
65162;SDS011;51751;55.714;37.436;2023-07-02T11:30:07;7.07;;;2.92;;
65162;SDS011;51751;55.714;37.436;2023-07-02T11:32:55;7.95;;;2.85;;
65162;SDS011;51751;55.714;37.436;2023-07-02T11:35:39;6.57;;;2.45;;
65162;SDS011;51751;55.714;37.436;2023-07-02T11:38:14;11.10;;;2.60;;
65162;SDS011;51751;55.714;37.436;2023-07-02T11:40:40;5.88;;;3.05;;
65162;SDS011;51751;55.714;37.436;2023-07-02T11:43:09;3.92;;;2.60;;
65162;SDS011;51751;55.714;37.436;2023-07-02T11:45:38;8.88;;;2.85;;
65162;SDS011;51751;55.714;37.436;2023-07-02T11:48:04;4.35;;;2.70;;
65162;SDS011;51751;55.714;37.436;2023-07-02T11:50:32;3.03;;;2.53;;
65162;SDS011;51751;55.714;37.436;2023-07-02T11:53:01;14.15;;;3.63;;
65162;SDS011;51751;55.714;37.436;2023-07-02T11:55:28;22.08;;;4.45;;
65162;SDS011;51751;55.714;37.436;2023-07-02T11:57:54;7.90;;;3.10;;
65162;SDS011;51751;55.714;37.436;2023-07-02T12:00:19;5.57;;;3.10;;
65162;SDS011;51751;55.714;37.436;2023-07-02T12:02:48;9.60;;;2.95;;
65162;SDS011;51751;55.714;37.436;2023-07-02T12:05:20;12.23;;;3.20;;
65162;SDS011;51751;55.714;37.436;2023-07-02T12:07:47;12.73;;;3.28;;
65162;SDS011;51751;55.714;37.436;2023-07-02T12:10:13;7.70;;;3.03;;
65162;SDS011;51751;55.714;37.436;2023-07-02T12:12:39;5.97;;;2.50;;
65162;SDS011;51751;55.714;37.436;2023-07-02T12:15:05;7.30;;;3.33;;
65162;SDS011;51751;55.714;37.436;2023-07-02T12:17:31;8.00;;;2.88;;
65162;SDS011;51751;55.714;37.436;2023-07-02T12:19:58;7.13;;;2.90;;
65162;SDS011;51751;55.714;37.436;2023-07-02T12:22:24;7.25;;;2.95;;
65162;SDS011;51751;55.714;37.436;2023-07-02T12:24:50;6.32;;;3.08;;
65162;SDS011;51751;55.714;37.436;2023-07-02T12:27:18;10.32;;;2.92;;
65162;SDS011;51751;55.714;37.436;2023-07-02T12:29:44;6.45;;;3.30;;
65162;SDS011;51751;55.714;37.436;2023-07-02T12:32:17;7.00;;;2.72;;
65162;SDS011;51751;55.714;37.436;2023-07-02T12:34:43;5.72;;;2.90;;
65162;SDS011;51751;55.714;37.436;2023-07-02T12:37:12;10.65;;;3.00;;
65162;SDS011;51751;55.714;37.436;2023-07-02T12:39:42;7.65;;;3.00;;
65162;SDS011;51751;55.714;37.436;2023-07-02T12:42:08;7.10;;;2.95;;
65162;SDS011;51751;55.714;37.436;2023-07-02T12:44:35;9.77;;;3.03;;
65162;SDS011;51751;55.714;37.436;2023-07-02T12:47:01;6.38;;;2.70;;
65162;SDS011;51751;55.714;37.436;2023-07-02T12:49:52;8.23;;;2.97;;
65162;SDS011;51751;55.714;37.436;2023-07-02T12:52:22;5.93;;;2.95;;
65162;SDS011;51751;55.714;37.436;2023-07-02T12:54:47;10.85;;;3.13;;
65162;SDS011;51751;55.714;37.436;2023-07-02T12:57:14;5.85;;;2.90;;
65162;SDS011;51751;55.714;37.436;2023-07-02T12:59:40;5.65;;;3.10;;
65162;SDS011;51751;55.714;37.436;2023-07-02T13:02:06;6.85;;;2.88;;
65162;SDS011;51751;55.714;37.436;2023-07-02T13:04:32;5.03;;;2.80;;
65162;SDS011;51751;55.714;37.436;2023-07-02T13:07:01;4.90;;;3.08;;
65162;SDS011;51751;55.714;37.436;2023-07-02T13:09:27;6.03;;;3.58;;
65162;SDS011;51751;55.714;37.436;2023-07-02T13:11:53;5.25;;;3.20;;
65162;SDS011;51751;55.714;37.436;2023-07-02T13:14:19;10.32;;;3.22;;
65162;SDS011;51751;55.714;37.436;2023-07-02T13:16:48;8.30;;;3.38;;
65162;SDS011;51751;55.714;37.436;2023-07-02T13:19:16;8.50;;;3.28;;
65162;SDS011;51751;55.714;37.436;2023-07-02T13:21:42;6.93;;;3.22;;
65162;SDS011;51751;55.714;37.436;2023-07-02T13:24:08;5.78;;;3.63;;
65162;SDS011;51751;55.714;37.436;2023-07-02T13:26:37;6.88;;;3.47;;
65162;SDS011;51751;55.714;37.436;2023-07-02T13:29:04;8.75;;;3.47;;
65162;SDS011;51751;55.714;37.436;2023-07-02T13:31:30;10.57;;;3.28;;
65162;SDS011;51751;55.714;37.436;2023-07-02T13:33:59;5.00;;;3.05;;
65162;SDS011;51751;55.714;37.436;2023-07-02T13:36:24;5.32;;;3.10;;
65162;SDS011;51751;55.714;37.436;2023-07-02T13:38:54;5.47;;;3.35;;
65162;SDS011;51751;55.714;37.436;2023-07-02T13:41:23;5.78;;;3.13;;
65162;SDS011;51751;55.714;37.436;2023-07-02T13:43:49;4.90;;;3.50;;
65162;SDS011;51751;55.714;37.436;2023-07-02T13:46:15;5.60;;;3.38;;
65162;SDS011;51751;55.714;37.436;2023-07-02T13:48:42;5.75;;;3.65;;
65162;SDS011;51751;55.714;37.436;2023-07-02T13:51:10;10.57;;;3.75;;
65162;SDS011;51751;55.714;37.436;2023-07-02T13:53:39;9.43;;;3.28;;
65162;SDS011;51751;55.714;37.436;2023-07-02T13:56:07;6.18;;;3.30;;
65162;SDS011;51751;55.714;37.436;2023-07-02T13:58:46;11.07;;;3.40;;
65162;SDS011;51751;55.714;37.436;2023-07-02T14:01:24;7.00;;;3.35;;
65162;SDS011;51751;55.714;37.436;2023-07-02T14:03:50;4.65;;;3.17;;
65162;SDS011;51751;55.714;37.436;2023-07-02T14:06:17;5.45;;;3.10;;
65162;SDS011;51751;55.714;37.436;2023-07-02T14:08:43;10.40;;;3.80;;
65162;SDS011;51751;55.714;37.436;2023-07-02T14:11:09;9.13;;;3.17;;
65162;SDS011;51751;55.714;37.436;2023-07-02T14:13:35;7.72;;;3.38;;
65162;SDS011;51751;55.714;37.436;2023-07-02T14:16:01;10.70;;;3.42;;
65162;SDS011;51751;55.714;37.436;2023-07-02T14:18:33;5.93;;;3.30;;
65162;SDS011;51751;55.714;37.436;2023-07-02T14:21:05;9.63;;;3.58;;
65162;SDS011;51751;55.714;37.436;2023-07-02T14:23:32;9.10;;;3.33;;
65162;SDS011;51751;55.714;37.436;2023-07-02T14:26:01;6.93;;;3.35;;
65162;SDS011;51751;55.714;37.436;2023-07-02T14:28:27;7.30;;;3.70;;
65162;SDS011;51751;55.714;37.436;2023-07-02T14:31:04;6.03;;;3.38;;
65162;SDS011;51751;55.714;37.436;2023-07-02T14:33:33;8.80;;;3.40;;
65162;SDS011;51751;55.714;37.436;2023-07-02T14:36:21;6.22;;;3.53;;
65162;SDS011;51751;55.714;37.436;2023-07-02T14:38:50;5.05;;;3.22;;
65162;SDS011;51751;55.714;37.436;2023-07-02T14:41:16;6.13;;;3.53;;
65162;SDS011;51751;55.714;37.436;2023-07-02T14:43:42;5.85;;;3.65;;